sensor_id;sensor_type;location;lat;lon;timestamp;temperature;humidity
55213;DHT22;41083;52.932;6.674;2022-10-30T00:00:55;14.60;99.90
55213;DHT22;41083;52.932;6.674;2022-10-30T00:03:20;14.50;99.90
55213;DHT22;41083;52.932;6.674;2022-10-30T00:05:48;14.60;99.90
55213;DHT22;41083;52.932;6.674;2022-10-30T00:08:15;14.50;99.90
55213;DHT22;41083;52.932;6.674;2022-10-30T00:10:42;14.60;99.90
55213;DHT22;41083;52.932;6.674;2022-10-30T00:13:08;14.50;99.90
55213;DHT22;41083;52.932;6.674;2022-10-30T00:15:34;14.50;99.90
55213;DHT22;41083;52.932;6.674;2022-10-30T00:18:00;14.50;99.90
55213;DHT22;41083;52.932;6.674;2022-10-30T00:20:26;14.50;99.90
55213;DHT22;41083;52.932;6.674;2022-10-30T00:22:52;14.50;99.90
55213;DHT22;41083;52.932;6.674;2022-10-30T00:25:17;14.40;99.90
55213;DHT22;41083;52.932;6.674;2022-10-30T00:27:43;14.40;99.90
55213;DHT22;41083;52.932;6.674;2022-10-30T00:30:09;14.50;99.90
55213;DHT22;41083;52.932;6.674;2022-10-30T00:32:35;14.40;99.90
55213;DHT22;41083;52.932;6.674;2022-10-30T00:35:00;14.40;99.90
55213;DHT22;41083;52.932;6.674;2022-10-30T00:37:26;14.40;99.90
55213;DHT22;41083;52.932;6.674;2022-10-30T00:39:52;14.40;99.90
55213;DHT22;41083;52.932;6.674;2022-10-30T00:42:17;14.40;99.90
55213;DHT22;41083;52.932;6.674;2022-10-30T00:47:40;14.40;99.90
55213;DHT22;41083;52.932;6.674;2022-10-30T00:50:17;14.40;99.90
55213;DHT22;41083;52.932;6.674;2022-10-30T00:53:11;14.40;99.90
55213;DHT22;41083;52.932;6.674;2022-10-30T00:58:09;14.30;99.90
55213;DHT22;41083;52.932;6.674;2022-10-30T01:00:36;14.30;99.90
55213;DHT22;41083;52.932;6.674;2022-10-30T01:03:04;14.30;99.90
55213;DHT22;41083;52.932;6.674;2022-10-30T01:05:30;14.30;99.90
55213;DHT22;41083;52.932;6.674;2022-10-30T01:07:56;14.40;99.90
55213;DHT22;41083;52.932;6.674;2022-10-30T01:10:22;14.40;99.90
55213;DHT22;41083;52.932;6.674;2022-10-30T01:12:50;14.30;99.90
55213;DHT22;41083;52.932;6.674;2022-10-30T01:15:18;14.30;99.90
55213;DHT22;41083;52.932;6.674;2022-10-30T01:20:54;14.30;99.90
55213;DHT22;41083;52.932;6.674;2022-10-30T01:26:27;14.30;99.90
55213;DHT22;41083;52.932;6.674;2022-10-30T01:29:20;14.30;99.90
55213;DHT22;41083;52.932;6.674;2022-10-30T01:32:03;14.20;99.90
55213;DHT22;41083;52.932;6.674;2022-10-30T01:34:43;14.30;99.90
55213;DHT22;41083;52.932;6.674;2022-10-30T01:37:32;14.20;99.90
55213;DHT22;41083;52.932;6.674;2022-10-30T01:40:09;14.20;99.90
55213;DHT22;41083;52.932;6.674;2022-10-30T01:45:21;14.20;99.90
55213;DHT22;41083;52.932;6.674;2022-10-30T01:50:56;14.10;99.90
55213;DHT22;41083;52.932;6.674;2022-10-30T01:53:54;14.10;99.90
55213;DHT22;41083;52.932;6.674;2022-10-30T02:01:38;14.10;99.90
55213;DHT22;41083;52.932;6.674;2022-10-30T02:04:08;14.10;99.90
55213;DHT22;41083;52.932;6.674;2022-10-30T02:06:36;14.00;99.90
55213;DHT22;41083;52.932;6.674;2022-10-30T02:09:02;14.00;99.90
55213;DHT22;41083;52.932;6.674;2022-10-30T02:11:28;14.00;99.90
55213;DHT22;41083;52.932;6.674;2022-10-30T02:13:56;14.00;99.90
55213;DHT22;41083;52.932;6.674;2022-10-30T02:16:23;14.00;99.90
55213;DHT22;41083;52.932;6.674;2022-10-30T02:18:48;14.00;99.90
55213;DHT22;41083;52.932;6.674;2022-10-30T02:21:14;14.00;99.90
55213;DHT22;41083;52.932;6.674;2022-10-30T02:23:40;14.00;99.90
55213;DHT22;41083;52.932;6.674;2022-10-30T02:26:05;14.00;99.90
55213;DHT22;41083;52.932;6.674;2022-10-30T02:28:31;14.00;99.90
55213;DHT22;41083;52.932;6.674;2022-10-30T02:30:56;14.00;99.90
55213;DHT22;41083;52.932;6.674;2022-10-30T02:33:22;14.00;99.90
55213;DHT22;41083;52.932;6.674;2022-10-30T02:35:51;14.00;99.90
55213;DHT22;41083;52.932;6.674;2022-10-30T02:38:17;14.00;99.90
55213;DHT22;41083;52.932;6.674;2022-10-30T02:40:43;14.00;99.90
55213;DHT22;41083;52.932;6.674;2022-10-30T02:43:08;14.00;99.90
55213;DHT22;41083;52.932;6.674;2022-10-30T02:45:34;14.00;99.90
55213;DHT22;41083;52.932;6.674;2022-10-30T02:47:59;14.00;99.90
55213;DHT22;41083;52.932;6.674;2022-10-30T02:50:26;14.00;99.90
55213;DHT22;41083;52.932;6.674;2022-10-30T02:52:51;14.00;99.90
55213;DHT22;41083;52.932;6.674;2022-10-30T02:55:17;14.00;99.90
55213;DHT22;41083;52.932;6.674;2022-10-30T02:57:43;14.00;99.90
55213;DHT22;41083;52.932;6.674;2022-10-30T03:00:09;13.90;99.90
55213;DHT22;41083;52.932;6.674;2022-10-30T03:02:35;13.90;99.90
55213;DHT22;41083;52.932;6.674;2022-10-30T03:05:01;13.90;99.90
55213;DHT22;41083;52.932;6.674;2022-10-30T03:07:26;13.90;99.90
55213;DHT22;41083;52.932;6.674;2022-10-30T03:09:52;13.90;99.90
55213;DHT22;41083;52.932;6.674;2022-10-30T03:12:19;13.80;99.90
55213;DHT22;41083;52.932;6.674;2022-10-30T03:14:45;13.80;99.90
55213;DHT22;41083;52.932;6.674;2022-10-30T03:17:10;13.80;99.90
55213;DHT22;41083;52.932;6.674;2022-10-30T03:19:36;13.80;99.90
55213;DHT22;41083;52.932;6.674;2022-10-30T03:22:02;13.80;99.90
55213;DHT22;41083;52.932;6.674;2022-10-30T03:24:28;13.80;99.90
55213;DHT22;41083;52.932;6.674;2022-10-30T03:26:53;13.80;99.90
55213;DHT22;41083;52.932;6.674;2022-10-30T03:29:19;13.80;99.90
55213;DHT22;41083;52.932;6.674;2022-10-30T03:31:45;13.80;99.90
55213;DHT22;41083;52.932;6.674;2022-10-30T03:34:11;13.80;99.90
55213;DHT22;41083;52.932;6.674;2022-10-30T03:36:36;13.70;99.90
55213;DHT22;41083;52.932;6.674;2022-10-30T03:39:03;13.70;99.90
55213;DHT22;41083;52.932;6.674;2022-10-30T03:41:28;13.70;99.90
55213;DHT22;41083;52.932;6.674;2022-10-30T03:43:54;13.70;99.90
55213;DHT22;41083;52.932;6.674;2022-10-30T03:46:19;13.70;99.90
55213;DHT22;41083;52.932;6.674;2022-10-30T03:48:48;13.70;99.90
55213;DHT22;41083;52.932;6.674;2022-10-30T03:51:14;13.70;99.90
55213;DHT22;41083;52.932;6.674;2022-10-30T03:53:39;13.60;99.90
55213;DHT22;41083;52.932;6.674;2022-10-30T03:56:05;13.60;99.90
55213;DHT22;41083;52.932;6.674;2022-10-30T03:58:31;13.60;99.90
55213;DHT22;41083;52.932;6.674;2022-10-30T04:01:04;13.60;99.90
55213;DHT22;41083;52.932;6.674;2022-10-30T04:03:30;13.60;99.90
55213;DHT22;41083;52.932;6.674;2022-10-30T04:05:56;13.60;99.90
55213;DHT22;41083;52.932;6.674;2022-10-30T04:08:22;13.60;99.90
55213;DHT22;41083;52.932;6.674;2022-10-30T04:10:47;13.60;99.90
55213;DHT22;41083;52.932;6.674;2022-10-30T04:13:15;13.60;99.90
55213;DHT22;41083;52.932;6.674;2022-10-30T04:15:41;13.50;99.90
55213;DHT22;41083;52.932;6.674;2022-10-30T04:18:10;13.50;99.90
55213;DHT22;41083;52.932;6.674;2022-10-30T04:20:35;13.60;99.90
55213;DHT22;41083;52.932;6.674;2022-10-30T04:23:03;13.50;99.90
55213;DHT22;41083;52.932;6.674;2022-10-30T04:25:30;13.60;99.90
55213;DHT22;41083;52.932;6.674;2022-10-30T04:27:56;13.50;99.90
55213;DHT22;41083;52.932;6.674;2022-10-30T04:30:22;13.50;99.90
55213;DHT22;41083;52.932;6.674;2022-10-30T04:32:51;13.50;99.90
55213;DHT22;41083;52.932;6.674;2022-10-30T04:35:18;13.50;99.90
55213;DHT22;41083;52.932;6.674;2022-10-30T04:37:54;13.40;99.90
55213;DHT22;41083;52.932;6.674;2022-10-30T04:40:24;13.40;99.90
55213;DHT22;41083;52.932;6.674;2022-10-30T04:42:51;13.40;99.90
55213;DHT22;41083;52.932;6.674;2022-10-30T04:45:16;13.40;99.90
55213;DHT22;41083;52.932;6.674;2022-10-30T04:47:42;13.40;99.90
55213;DHT22;41083;52.932;6.674;2022-10-30T04:50:08;13.40;99.90
55213;DHT22;41083;52.932;6.674;2022-10-30T04:52:34;13.40;99.90
55213;DHT22;41083;52.932;6.674;2022-10-30T04:55:00;13.40;99.90
55213;DHT22;41083;52.932;6.674;2022-10-30T04:57:26;13.30;99.90
55213;DHT22;41083;52.932;6.674;2022-10-30T04:59:51;13.30;99.90
55213;DHT22;41083;52.932;6.674;2022-10-30T05:02:17;13.30;99.90
55213;DHT22;41083;52.932;6.674;2022-10-30T05:04:45;13.30;99.90
55213;DHT22;41083;52.932;6.674;2022-10-30T05:07:11;13.30;99.90
55213;DHT22;41083;52.932;6.674;2022-10-30T05:09:37;13.30;99.90
55213;DHT22;41083;52.932;6.674;2022-10-30T05:12:03;13.30;99.90
55213;DHT22;41083;52.932;6.674;2022-10-30T05:14:30;13.30;99.90
55213;DHT22;41083;52.932;6.674;2022-10-30T05:16:56;13.30;99.90
55213;DHT22;41083;52.932;6.674;2022-10-30T05:19:21;13.30;99.90
55213;DHT22;41083;52.932;6.674;2022-10-30T05:21:47;13.30;99.90
55213;DHT22;41083;52.932;6.674;2022-10-30T05:24:13;13.30;99.90
55213;DHT22;41083;52.932;6.674;2022-10-30T05:26:38;13.20;99.90
55213;DHT22;41083;52.932;6.674;2022-10-30T05:29:04;13.10;99.90
55213;DHT22;41083;52.932;6.674;2022-10-30T05:31:29;13.20;99.90
55213;DHT22;41083;52.932;6.674;2022-10-30T05:33:55;13.20;99.90
55213;DHT22;41083;52.932;6.674;2022-10-30T05:36:21;13.20;99.90
55213;DHT22;41083;52.932;6.674;2022-10-30T05:38:47;13.20;99.90
55213;DHT22;41083;52.932;6.674;2022-10-30T05:41:12;13.20;99.90
55213;DHT22;41083;52.932;6.674;2022-10-30T05:43:38;13.20;99.90
55213;DHT22;41083;52.932;6.674;2022-10-30T05:46:04;13.20;99.90
55213;DHT22;41083;52.932;6.674;2022-10-30T05:48:29;13.10;99.90
55213;DHT22;41083;52.932;6.674;2022-10-30T05:50:55;13.20;99.90
55213;DHT22;41083;52.932;6.674;2022-10-30T05:53:21;13.20;99.90
55213;DHT22;41083;52.932;6.674;2022-10-30T05:55:48;13.20;99.90
55213;DHT22;41083;52.932;6.674;2022-10-30T05:58:14;13.10;99.90
55213;DHT22;41083;52.932;6.674;2022-10-30T06:00:40;13.10;99.90
55213;DHT22;41083;52.932;6.674;2022-10-30T06:03:10;13.10;99.90
55213;DHT22;41083;52.932;6.674;2022-10-30T06:05:37;13.10;99.90
55213;DHT22;41083;52.932;6.674;2022-10-30T06:08:05;13.20;99.90
55213;DHT22;41083;52.932;6.674;2022-10-30T06:10:31;13.10;99.90
55213;DHT22;41083;52.932;6.674;2022-10-30T06:13:02;13.20;99.90
55213;DHT22;41083;52.932;6.674;2022-10-30T06:15:29;13.10;99.90
55213;DHT22;41083;52.932;6.674;2022-10-30T06:17:55;13.20;99.90
55213;DHT22;41083;52.932;6.674;2022-10-30T06:20:23;13.20;99.90
55213;DHT22;41083;52.932;6.674;2022-10-30T06:22:56;13.10;99.90
55213;DHT22;41083;52.932;6.674;2022-10-30T06:25:23;13.10;99.90
55213;DHT22;41083;52.932;6.674;2022-10-30T06:27:49;13.20;99.90
55213;DHT22;41083;52.932;6.674;2022-10-30T06:30:15;13.10;99.90
55213;DHT22;41083;52.932;6.674;2022-10-30T06:32:41;13.10;99.90
55213;DHT22;41083;52.932;6.674;2022-10-30T06:35:07;13.10;99.90
55213;DHT22;41083;52.932;6.674;2022-10-30T06:37:33;13.10;99.90
55213;DHT22;41083;52.932;6.674;2022-10-30T06:39:58;13.10;99.90
55213;DHT22;41083;52.932;6.674;2022-10-30T06:42:24;13.20;99.90
55213;DHT22;41083;52.932;6.674;2022-10-30T06:44:50;13.10;99.90
55213;DHT22;41083;52.932;6.674;2022-10-30T06:47:16;13.10;99.90
55213;DHT22;41083;52.932;6.674;2022-10-30T06:49:41;13.10;99.90
55213;DHT22;41083;52.932;6.674;2022-10-30T06:52:07;13.10;99.90
55213;DHT22;41083;52.932;6.674;2022-10-30T06:54:32;13.10;99.90
55213;DHT22;41083;52.932;6.674;2022-10-30T06:56:58;13.10;99.90
55213;DHT22;41083;52.932;6.674;2022-10-30T06:59:24;13.00;99.90
55213;DHT22;41083;52.932;6.674;2022-10-30T07:01:50;13.00;99.90
55213;DHT22;41083;52.932;6.674;2022-10-30T07:04:16;13.00;99.90
55213;DHT22;41083;52.932;6.674;2022-10-30T07:06:42;13.00;99.90
55213;DHT22;41083;52.932;6.674;2022-10-30T07:09:07;13.00;99.90
55213;DHT22;41083;52.932;6.674;2022-10-30T07:11:33;13.00;99.90
55213;DHT22;41083;52.932;6.674;2022-10-30T07:13:58;13.00;99.90
55213;DHT22;41083;52.932;6.674;2022-10-30T07:16:24;13.00;99.90
55213;DHT22;41083;52.932;6.674;2022-10-30T07:18:50;13.00;99.90
55213;DHT22;41083;52.932;6.674;2022-10-30T07:21:17;13.00;99.90
55213;DHT22;41083;52.932;6.674;2022-10-30T07:23:43;13.00;99.90
55213;DHT22;41083;52.932;6.674;2022-10-30T07:26:08;13.00;99.90
55213;DHT22;41083;52.932;6.674;2022-10-30T07:28:34;13.10;99.90
55213;DHT22;41083;52.932;6.674;2022-10-30T07:30:59;13.00;99.90
55213;DHT22;41083;52.932;6.674;2022-10-30T07:33:25;13.10;99.90
55213;DHT22;41083;52.932;6.674;2022-10-30T07:35:51;13.00;99.90
55213;DHT22;41083;52.932;6.674;2022-10-30T07:38:17;13.10;99.90
55213;DHT22;41083;52.932;6.674;2022-10-30T07:40:43;13.10;99.90
55213;DHT22;41083;52.932;6.674;2022-10-30T07:43:09;13.20;99.90
55213;DHT22;41083;52.932;6.674;2022-10-30T07:45:37;13.20;99.90
55213;DHT22;41083;52.932;6.674;2022-10-30T07:48:03;13.20;99.90
55213;DHT22;41083;52.932;6.674;2022-10-30T07:50:29;13.30;99.90
55213;DHT22;41083;52.932;6.674;2022-10-30T07:52:55;13.30;99.90
55213;DHT22;41083;52.932;6.674;2022-10-30T07:55:21;13.30;99.90
55213;DHT22;41083;52.932;6.674;2022-10-30T07:57:46;13.30;99.90
55213;DHT22;41083;52.932;6.674;2022-10-30T08:00:13;13.30;99.90
55213;DHT22;41083;52.932;6.674;2022-10-30T08:02:40;13.40;99.90
55213;DHT22;41083;52.932;6.674;2022-10-30T08:05:06;13.40;99.90
55213;DHT22;41083;52.932;6.674;2022-10-30T08:07:35;13.40;99.90
55213;DHT22;41083;52.932;6.674;2022-10-30T08:10:00;13.50;99.90
55213;DHT22;41083;52.932;6.674;2022-10-30T08:12:26;13.40;99.90
55213;DHT22;41083;52.932;6.674;2022-10-30T08:14:52;13.50;99.90
55213;DHT22;41083;52.932;6.674;2022-10-30T08:17:18;13.50;99.90
55213;DHT22;41083;52.932;6.674;2022-10-30T08:19:44;13.50;99.90
55213;DHT22;41083;52.932;6.674;2022-10-30T08:22:10;13.50;99.90
55213;DHT22;41083;52.932;6.674;2022-10-30T08:24:35;13.50;99.90
55213;DHT22;41083;52.932;6.674;2022-10-30T08:27:01;13.60;99.90
55213;DHT22;41083;52.932;6.674;2022-10-30T08:29:27;13.60;99.90
55213;DHT22;41083;52.932;6.674;2022-10-30T08:31:53;13.60;99.90
55213;DHT22;41083;52.932;6.674;2022-10-30T08:34:19;13.60;99.90
55213;DHT22;41083;52.932;6.674;2022-10-30T08:36:50;13.60;99.90
55213;DHT22;41083;52.932;6.674;2022-10-30T08:39:16;13.60;99.90
55213;DHT22;41083;52.932;6.674;2022-10-30T08:41:42;13.70;99.90
55213;DHT22;41083;52.932;6.674;2022-10-30T08:44:08;13.70;99.90
55213;DHT22;41083;52.932;6.674;2022-10-30T08:46:34;13.70;99.90
55213;DHT22;41083;52.932;6.674;2022-10-30T08:49:00;13.70;99.90
55213;DHT22;41083;52.932;6.674;2022-10-30T08:51:26;13.80;99.90
55213;DHT22;41083;52.932;6.674;2022-10-30T08:53:51;13.80;99.90
55213;DHT22;41083;52.932;6.674;2022-10-30T08:56:17;13.80;99.90
55213;DHT22;41083;52.932;6.674;2022-10-30T08:58:43;13.80;99.90
55213;DHT22;41083;52.932;6.674;2022-10-30T09:01:09;13.90;99.90
55213;DHT22;41083;52.932;6.674;2022-10-30T09:03:34;13.90;99.90
55213;DHT22;41083;52.932;6.674;2022-10-30T09:06:00;14.00;99.90
55213;DHT22;41083;52.932;6.674;2022-10-30T09:08:27;14.00;99.90
55213;DHT22;41083;52.932;6.674;2022-10-30T09:10:56;14.00;99.90
55213;DHT22;41083;52.932;6.674;2022-10-30T09:13:23;14.10;99.90
55213;DHT22;41083;52.932;6.674;2022-10-30T09:15:50;14.10;99.90
55213;DHT22;41083;52.932;6.674;2022-10-30T09:18:15;14.10;99.90
55213;DHT22;41083;52.932;6.674;2022-10-30T09:20:41;14.20;99.90
55213;DHT22;41083;52.932;6.674;2022-10-30T09:23:07;14.20;99.90
55213;DHT22;41083;52.932;6.674;2022-10-30T09:25:33;14.20;99.90
55213;DHT22;41083;52.932;6.674;2022-10-30T09:27:58;14.30;99.90
55213;DHT22;41083;52.932;6.674;2022-10-30T09:30:24;14.30;99.90
55213;DHT22;41083;52.932;6.674;2022-10-30T09:32:57;14.30;99.90
55213;DHT22;41083;52.932;6.674;2022-10-30T09:35:24;14.40;99.90
55213;DHT22;41083;52.932;6.674;2022-10-30T09:37:49;14.40;99.90
55213;DHT22;41083;52.932;6.674;2022-10-30T09:40:22;14.50;99.90
55213;DHT22;41083;52.932;6.674;2022-10-30T09:42:58;14.50;99.90
55213;DHT22;41083;52.932;6.674;2022-10-30T09:54:20;14.60;99.90
55213;DHT22;41083;52.932;6.674;2022-10-30T10:00:12;14.70;99.90
55213;DHT22;41083;52.932;6.674;2022-10-30T10:05:23;14.80;99.90
55213;DHT22;41083;52.932;6.674;2022-10-30T10:08:01;14.90;99.90
55213;DHT22;41083;52.932;6.674;2022-10-30T10:10:44;15.00;99.90
55213;DHT22;41083;52.932;6.674;2022-10-30T10:13:29;15.10;99.90
55213;DHT22;41083;52.932;6.674;2022-10-30T10:18:36;15.20;99.90
55213;DHT22;41083;52.932;6.674;2022-10-30T10:21:17;15.20;99.90
55213;DHT22;41083;52.932;6.674;2022-10-30T10:23:56;15.30;99.90
55213;DHT22;41083;52.932;6.674;2022-10-30T10:43:05;15.60;99.90
55213;DHT22;41083;52.932;6.674;2022-10-30T10:48:22;15.60;99.90
55213;DHT22;41083;52.932;6.674;2022-10-30T10:50:57;15.70;99.90
55213;DHT22;41083;52.932;6.674;2022-10-30T10:53:43;15.70;99.90
55213;DHT22;41083;52.932;6.674;2022-10-30T10:56:09;15.70;99.90
55213;DHT22;41083;52.932;6.674;2022-10-30T11:01:05;15.80;99.90
55213;DHT22;41083;52.932;6.674;2022-10-30T11:03:42;15.80;99.90
55213;DHT22;41083;52.932;6.674;2022-10-30T11:06:27;15.80;99.90
55213;DHT22;41083;52.932;6.674;2022-10-30T11:09:21;15.80;99.90
55213;DHT22;41083;52.932;6.674;2022-10-30T11:11:51;15.90;99.90
55213;DHT22;41083;52.932;6.674;2022-10-30T11:14:27;15.90;99.90
55213;DHT22;41083;52.932;6.674;2022-10-30T11:19:42;15.90;99.90
55213;DHT22;41083;52.932;6.674;2022-10-30T11:22:20;15.90;99.90
55213;DHT22;41083;52.932;6.674;2022-10-30T11:24:48;15.90;99.90
55213;DHT22;41083;52.932;6.674;2022-10-30T11:32:21;16.00;99.90
55213;DHT22;41083;52.932;6.674;2022-10-30T11:35:12;16.10;99.90
55213;DHT22;41083;52.932;6.674;2022-10-30T11:37:40;16.00;99.90
55213;DHT22;41083;52.932;6.674;2022-10-30T11:40:15;16.10;99.90
55213;DHT22;41083;52.932;6.674;2022-10-30T11:42:44;16.10;99.90
55213;DHT22;41083;52.932;6.674;2022-10-30T11:45:25;16.10;99.90
55213;DHT22;41083;52.932;6.674;2022-10-30T11:47:54;16.10;99.90
55213;DHT22;41083;52.932;6.674;2022-10-30T11:50:23;16.20;99.90
55213;DHT22;41083;52.932;6.674;2022-10-30T11:52:59;16.20;99.90
55213;DHT22;41083;52.932;6.674;2022-10-30T11:55:38;16.20;99.90
55213;DHT22;41083;52.932;6.674;2022-10-30T11:58:06;16.30;99.90
55213;DHT22;41083;52.932;6.674;2022-10-30T12:00:36;16.30;99.90
55213;DHT22;41083;52.932;6.674;2022-10-30T12:03:02;16.40;99.90
55213;DHT22;41083;52.932;6.674;2022-10-30T12:10:39;16.50;99.90
55213;DHT22;41083;52.932;6.674;2022-10-30T12:13:15;16.50;99.90
55213;DHT22;41083;52.932;6.674;2022-10-30T12:15:43;16.50;99.90
55213;DHT22;41083;52.932;6.674;2022-10-30T12:18:29;16.50;99.90
55213;DHT22;41083;52.932;6.674;2022-10-30T12:20:56;16.50;99.90
55213;DHT22;41083;52.932;6.674;2022-10-30T12:23:24;16.50;99.90
55213;DHT22;41083;52.932;6.674;2022-10-30T12:25:52;16.60;99.90
55213;DHT22;41083;52.932;6.674;2022-10-30T12:28:20;16.70;99.90
55213;DHT22;41083;52.932;6.674;2022-10-30T12:30:53;16.70;99.90
55213;DHT22;41083;52.932;6.674;2022-10-30T12:36:06;16.70;99.90
55213;DHT22;41083;52.932;6.674;2022-10-30T12:38:48;16.70;99.90
55213;DHT22;41083;52.932;6.674;2022-10-30T12:41:19;16.80;99.90
55213;DHT22;41083;52.932;6.674;2022-10-30T12:44:10;16.80;99.90
55213;DHT22;41083;52.932;6.674;2022-10-30T12:46:42;16.80;99.90
55213;DHT22;41083;52.932;6.674;2022-10-30T12:52:15;16.90;99.90
55213;DHT22;41083;52.932;6.674;2022-10-30T12:57:32;16.90;99.90
55213;DHT22;41083;52.932;6.674;2022-10-30T13:00:11;16.90;99.90
55213;DHT22;41083;52.932;6.674;2022-10-30T13:05:25;17.00;99.90
55213;DHT22;41083;52.932;6.674;2022-10-30T13:11:27;17.00;99.90
55213;DHT22;41083;52.932;6.674;2022-10-30T13:13:37;17.00;99.90
55213;DHT22;41083;52.932;6.674;2022-10-30T13:16:11;17.00;99.90
55213;DHT22;41083;52.932;6.674;2022-10-30T13:18:37;17.10;99.90
55213;DHT22;41083;52.932;6.674;2022-10-30T13:24:11;17.10;99.90
55213;DHT22;41083;52.932;6.674;2022-10-30T13:27:35;17.10;99.90
55213;DHT22;41083;52.932;6.674;2022-10-30T13:32:25;17.20;99.90
55213;DHT22;41083;52.932;6.674;2022-10-30T13:35:19;17.20;99.90
55213;DHT22;41083;52.932;6.674;2022-10-30T13:43:24;17.20;99.90
55213;DHT22;41083;52.932;6.674;2022-10-30T13:49:31;17.10;99.90
55213;DHT22;41083;52.932;6.674;2022-10-30T13:54:34;17.10;99.90
55213;DHT22;41083;52.932;6.674;2022-10-30T13:57:13;17.00;99.90
55213;DHT22;41083;52.932;6.674;2022-10-30T14:00:05;17.00;99.90
55213;DHT22;41083;52.932;6.674;2022-10-30T14:03:03;17.00;99.90
55213;DHT22;41083;52.932;6.674;2022-10-30T14:05:34;17.00;99.90
55213;DHT22;41083;52.932;6.674;2022-10-30T14:10:47;17.00;99.90
55213;DHT22;41083;52.932;6.674;2022-10-30T14:13:22;17.00;99.90
55213;DHT22;41083;52.932;6.674;2022-10-30T14:16:05;17.00;99.90
55213;DHT22;41083;52.932;6.674;2022-10-30T14:18:43;17.00;99.90
55213;DHT22;41083;52.932;6.674;2022-10-30T14:21:49;17.00;99.90
55213;DHT22;41083;52.932;6.674;2022-10-30T14:24:28;17.00;99.90
55213;DHT22;41083;52.932;6.674;2022-10-30T14:27:08;17.00;99.90
55213;DHT22;41083;52.932;6.674;2022-10-30T14:29:46;17.00;99.90
55213;DHT22;41083;52.932;6.674;2022-10-30T14:37:16;17.00;99.90
55213;DHT22;41083;52.932;6.674;2022-10-30T14:39:46;17.00;99.90
55213;DHT22;41083;52.932;6.674;2022-10-30T14:42:19;17.00;99.90
55213;DHT22;41083;52.932;6.674;2022-10-30T14:47:51;17.00;99.90
55213;DHT22;41083;52.932;6.674;2022-10-30T14:53:17;16.90;99.90
55213;DHT22;41083;52.932;6.674;2022-10-30T14:55:56;16.90;99.90
55213;DHT22;41083;52.932;6.674;2022-10-30T14:58:25;16.90;99.90
55213;DHT22;41083;52.932;6.674;2022-10-30T15:03:58;16.90;99.90
55213;DHT22;41083;52.932;6.674;2022-10-30T15:14:35;16.90;99.90
55213;DHT22;41083;52.932;6.674;2022-10-30T15:17:02;16.80;99.90
55213;DHT22;41083;52.932;6.674;2022-10-30T15:19:28;16.70;99.90
55213;DHT22;41083;52.932;6.674;2022-10-30T15:21:56;16.70;99.90
55213;DHT22;41083;52.932;6.674;2022-10-30T15:24:24;16.70;99.90
55213;DHT22;41083;52.932;6.674;2022-10-30T15:27:01;16.60;99.90
55213;DHT22;41083;52.932;6.674;2022-10-30T15:29:30;16.60;99.90
55213;DHT22;41083;52.932;6.674;2022-10-30T15:32:01;16.50;99.90
55213;DHT22;41083;52.932;6.674;2022-10-30T15:34:29;16.50;99.90
55213;DHT22;41083;52.932;6.674;2022-10-30T15:36:55;16.40;99.90
55213;DHT22;41083;52.932;6.674;2022-10-30T15:39:22;16.40;99.90
55213;DHT22;41083;52.932;6.674;2022-10-30T15:41:53;16.40;99.90
55213;DHT22;41083;52.932;6.674;2022-10-30T15:44:33;16.30;99.90
55213;DHT22;41083;52.932;6.674;2022-10-30T15:47:02;16.30;99.90
55213;DHT22;41083;52.932;6.674;2022-10-30T15:49:37;16.20;99.90
55213;DHT22;41083;52.932;6.674;2022-10-30T15:52:16;16.10;99.90
55213;DHT22;41083;52.932;6.674;2022-10-30T15:54:44;16.10;99.90
55213;DHT22;41083;52.932;6.674;2022-10-30T15:57:16;16.00;99.90
55213;DHT22;41083;52.932;6.674;2022-10-30T15:59:53;16.00;99.90
55213;DHT22;41083;52.932;6.674;2022-10-30T16:02:21;16.00;99.90
55213;DHT22;41083;52.932;6.674;2022-10-30T16:04:47;15.90;99.90
55213;DHT22;41083;52.932;6.674;2022-10-30T16:07:23;15.90;99.90
55213;DHT22;41083;52.932;6.674;2022-10-30T16:09:52;15.90;99.90
55213;DHT22;41083;52.932;6.674;2022-10-30T16:12:21;15.80;99.90
55213;DHT22;41083;52.932;6.674;2022-10-30T16:14:48;15.80;99.90
55213;DHT22;41083;52.932;6.674;2022-10-30T16:17:14;15.80;99.90
55213;DHT22;41083;52.932;6.674;2022-10-30T16:19:44;15.80;99.90
55213;DHT22;41083;52.932;6.674;2022-10-30T16:22:15;15.80;99.90
55213;DHT22;41083;52.932;6.674;2022-10-30T16:24:44;15.70;99.90
55213;DHT22;41083;52.932;6.674;2022-10-30T16:27:16;15.70;99.90
55213;DHT22;41083;52.932;6.674;2022-10-30T16:29:44;15.70;99.90
55213;DHT22;41083;52.932;6.674;2022-10-30T16:32:12;15.70;99.90
55213;DHT22;41083;52.932;6.674;2022-10-30T16:34:40;15.60;99.90
55213;DHT22;41083;52.932;6.674;2022-10-30T16:37:13;15.60;99.90
55213;DHT22;41083;52.932;6.674;2022-10-30T16:39:41;15.60;99.90
55213;DHT22;41083;52.932;6.674;2022-10-30T16:42:18;15.60;99.90
55213;DHT22;41083;52.932;6.674;2022-10-30T16:44:45;15.50;99.90
55213;DHT22;41083;52.932;6.674;2022-10-30T16:49:49;15.50;99.90
55213;DHT22;41083;52.932;6.674;2022-10-30T16:52:16;15.40;99.90
55213;DHT22;41083;52.932;6.674;2022-10-30T16:54:48;15.40;99.90
55213;DHT22;41083;52.932;6.674;2022-10-30T16:57:26;15.40;99.90
55213;DHT22;41083;52.932;6.674;2022-10-30T16:59:52;15.30;99.90
55213;DHT22;41083;52.932;6.674;2022-10-30T17:02:23;15.30;99.90
55213;DHT22;41083;52.932;6.674;2022-10-30T17:05:29;15.30;99.90
55213;DHT22;41083;52.932;6.674;2022-10-30T17:08:03;15.30;99.90
55213;DHT22;41083;52.932;6.674;2022-10-30T17:10:44;15.30;99.90
55213;DHT22;41083;52.932;6.674;2022-10-30T17:13:37;15.30;99.90
55213;DHT22;41083;52.932;6.674;2022-10-30T17:16:30;15.30;99.90
55213;DHT22;41083;52.932;6.674;2022-10-30T17:19:36;15.30;99.90
55213;DHT22;41083;52.932;6.674;2022-10-30T17:21:50;15.30;99.90
55213;DHT22;41083;52.932;6.674;2022-10-30T17:24:30;15.30;99.90
55213;DHT22;41083;52.932;6.674;2022-10-30T17:26:58;15.30;99.90
55213;DHT22;41083;52.932;6.674;2022-10-30T17:32:14;15.40;99.90
55213;DHT22;41083;52.932;6.674;2022-10-30T17:34:41;15.30;99.90
55213;DHT22;41083;52.932;6.674;2022-10-30T17:37:06;15.30;99.90
55213;DHT22;41083;52.932;6.674;2022-10-30T17:39:32;15.40;99.90
55213;DHT22;41083;52.932;6.674;2022-10-30T17:41:58;15.40;99.90
55213;DHT22;41083;52.932;6.674;2022-10-30T17:44:24;15.40;99.90
55213;DHT22;41083;52.932;6.674;2022-10-30T17:46:50;15.40;99.90
55213;DHT22;41083;52.932;6.674;2022-10-30T17:49:30;15.40;99.90
55213;DHT22;41083;52.932;6.674;2022-10-30T17:51:57;15.40;99.90
55213;DHT22;41083;52.932;6.674;2022-10-30T17:54:23;15.40;99.90
55213;DHT22;41083;52.932;6.674;2022-10-30T17:56:49;15.50;99.90
55213;DHT22;41083;52.932;6.674;2022-10-30T17:59:15;15.40;99.90
55213;DHT22;41083;52.932;6.674;2022-10-30T18:01:40;15.50;99.90